createdAt,value
2019-06-07T00:03:41.207Z,14.15
2019-06-07T00:08:44.649Z,14.21
2019-06-07T00:13:48.087Z,14.19
2019-06-07T00:18:51.490Z,14.12
2019-06-07T00:23:54.894Z,14.12
2019-06-07T00:28:58.370Z,14.04
2019-06-07T00:34:01.800Z,13.95
2019-06-07T00:39:10.516Z,13.95
2019-06-07T00:44:15.094Z,13.61
2019-06-07T00:49:32.267Z,13.70
2019-06-07T00:54:25.074Z,13.81
2019-06-07T00:59:29.743Z,13.78
2019-06-07T01:04:33.350Z,13.76
2019-06-07T01:09:36.745Z,13.66
2019-06-07T01:14:40.259Z,13.62
2019-06-07T01:19:43.720Z,13.60
2019-06-07T01:24:47.169Z,13.53
2019-06-07T01:29:50.597Z,13.47
2019-06-07T01:34:54.028Z,13.41
2019-06-07T01:39:57.478Z,13.35
2019-06-07T01:45:00.933Z,13.32
2019-06-07T01:50:09.237Z,13.37
2019-06-07T01:55:13.194Z,13.24
2019-06-07T02:00:17.497Z,13.31
2019-06-07T02:05:22.871Z,13.29
2019-06-07T02:10:30.284Z,13.27
2019-06-07T02:15:36.480Z,13.24
2019-06-07T02:20:36.407Z,13.08
2019-06-07T02:25:48.531Z,13.15
2019-06-07T02:30:58.386Z,13.13
2019-06-07T02:35:50.127Z,13.12
2019-06-07T02:40:53.574Z,13.19
2019-06-07T02:46:23.259Z,13.22
2019-06-07T02:51:02.198Z,13.18
2019-06-07T02:56:37.425Z,13.11
2019-06-07T03:01:11.971Z,12.94
2019-06-07T03:06:16.030Z,12.84
2019-06-07T03:11:21.195Z,12.84
2019-06-07T03:16:37.278Z,12.82
2019-06-07T03:21:42.146Z,12.84
2019-06-07T03:27:32.158Z,12.71
2019-06-07T03:31:50.992Z,12.65
2019-06-07T03:36:54.581Z,12.54
2019-06-07T03:42:06.142Z,12.56
2019-06-07T03:47:03.243Z,12.71
2019-06-07T03:52:06.688Z,12.89
2019-06-07T03:57:10.119Z,12.87
2019-06-07T04:02:13.539Z,12.84
2019-06-07T04:07:16.972Z,12.77
2019-06-07T04:12:20.555Z,12.96
2019-06-07T04:17:24.021Z,13.09
2019-06-07T04:22:28.849Z,13.03
2019-06-07T04:27:33.087Z,12.96
2019-06-07T04:32:39.569Z,13.02
2019-06-07T04:37:42.930Z,13.06
2019-06-07T04:42:46.819Z,13.12
2019-06-07T04:47:52.223Z,13.19
2019-06-07T04:52:55.669Z,13.28
2019-06-07T04:57:59.183Z,13.17
2019-06-07T05:03:04.661Z,13.22
2019-06-07T05:08:26.919Z,13.27
2019-06-07T05:13:13.292Z,13.34
2019-06-07T05:18:16.727Z,13.41
2019-06-07T05:23:59.821Z,13.47
2019-06-07T05:28:25.304Z,13.51
2019-06-07T05:33:28.767Z,13.59
2019-06-07T05:38:33.483Z,13.67
2019-06-07T05:43:41.028Z,13.67
2019-06-07T05:48:43.805Z,13.77
2019-06-07T05:53:47.336Z,13.87
2019-06-07T05:58:50.771Z,13.98
2019-06-07T06:03:54.575Z,14.12
2019-06-07T06:09:13.474Z,14.25
2019-06-07T06:14:07.974Z,14.43
2019-06-07T06:19:18.426Z,14.55
2019-06-07T06:24:21.854Z,14.68
2019-06-07T06:29:25.286Z,14.82
2019-06-07T06:34:28.699Z,15.01
2019-06-07T06:39:32.138Z,15.23
2019-06-07T06:44:35.642Z,15.47
2019-06-07T06:49:40.427Z,15.77
2019-06-07T06:54:49.155Z,16.09
2019-06-07T06:59:52.392Z,16.39
2019-06-07T07:04:54.763Z,16.85
2019-06-07T07:10:00.619Z,17.17
2019-06-07T07:15:07.358Z,17.51
2019-06-07T07:20:10.885Z,17.69
2019-06-07T07:25:14.849Z,18.00
2019-06-07T07:30:36.824Z,18.22
2019-06-07T07:35:29.235Z,18.27
2019-06-07T07:40:57.224Z,18.77
2019-06-07T07:45:38.274Z,18.93
2019-06-07T07:50:41.737Z,19.19
2019-06-07T07:55:49.472Z,19.43
2019-06-07T08:00:56.894Z,19.62
2019-06-07T08:05:58.952Z,19.29
2019-06-07T08:11:02.310Z,19.54
2019-06-07T08:16:11.803Z,19.45
2019-06-07T08:21:24.707Z,19.53
2019-06-07T08:26:16.441Z,19.67
2019-06-07T08:31:19.961Z,19.65
2019-06-07T08:36:40.707Z,20.29
2019-06-07T08:41:28.521Z,20.76
2019-06-07T08:46:31.944Z,20.92
2019-06-07T08:51:35.435Z,21.08
2019-06-07T08:56:38.863Z,21.07
2019-06-07T09:01:42.304Z,21.73
2019-06-07T09:11:50.863Z,22.62
2019-06-07T09:17:00.439Z,22.44
2019-06-07T09:22:03.128Z,22.77
2019-06-07T09:27:07.651Z,23.06
2019-06-07T09:32:15.871Z,23.46
2019-06-07T09:38:02.950Z,23.60
2019-06-07T09:42:20.315Z,23.24
2019-06-07T09:47:32.322Z,23.29
2019-06-07T09:52:28.992Z,23.56
2019-06-07T09:57:32.370Z,23.90
2019-06-07T10:02:35.792Z,24.13
2019-06-07T10:07:51.491Z,24.46
2019-06-07T10:12:44.456Z,24.68
2019-06-07T10:17:47.872Z,24.93
2019-06-07T10:22:51.428Z,24.68
2019-06-07T10:27:54.860Z,24.96
2019-06-07T10:32:59.889Z,25.75
2019-06-07T10:38:04.581Z,26.43
2019-06-07T10:43:09.111Z,26.54
2019-06-07T10:48:13.319Z,26.48
2019-06-07T10:53:16.736Z,26.29
2019-06-07T10:58:22.370Z,27.08
2019-06-07T11:03:25.849Z,27.07
2019-06-07T11:08:29.279Z,27.13
2019-06-07T11:13:32.701Z,27.31
2019-06-07T11:18:36.175Z,27.84
2019-06-07T11:23:39.616Z,27.51
2019-06-07T11:28:43.069Z,27.70
2019-06-07T11:33:46.867Z,28.12
2019-06-07T11:38:50.305Z,27.94
2019-06-07T11:43:53.723Z,28.34
2019-06-07T11:48:57.181Z,29.20
2019-06-07T11:54:00.685Z,29.30
2019-06-07T11:59:06.933Z,29.31
2019-06-07T12:04:11.537Z,29.16
2019-06-07T12:09:16.749Z,29.15
2019-06-07T12:14:20.355Z,28.96
2019-06-07T12:19:23.775Z,28.41
2019-06-07T12:24:27.209Z,28.92
2019-06-07T12:29:33.848Z,29.02
2019-06-07T12:34:35.858Z,29.72
2019-06-07T12:39:39.301Z,30.60
2019-06-07T12:44:42.726Z,31.21
2019-06-07T12:49:46.519Z,30.51
2019-06-07T12:54:49.967Z,31.11
2019-06-07T12:59:53.409Z,31.47
2019-06-07T13:04:56.840Z,31.12
2019-06-07T13:10:01.150Z,30.41
2019-06-07T13:15:07.426Z,31.19
2019-06-07T13:20:11.635Z,31.76
2019-06-07T13:25:16.273Z,32.24
2019-06-07T13:30:21.056Z,32.30
2019-06-07T13:35:25.495Z,31.50
2019-06-07T13:40:28.930Z,31.73
2019-06-07T13:45:32.358Z,31.45
2019-06-07T13:50:35.787Z,31.07
2019-06-07T13:55:39.248Z,31.34
2019-06-07T14:00:42.667Z,31.13
2019-06-07T14:05:46.086Z,31.05
2019-06-07T14:10:49.512Z,31.14
2019-06-07T14:15:52.917Z,31.03
2019-06-07T14:20:58.918Z,31.52
2019-06-07T14:26:02.453Z,31.79
2019-06-07T14:31:05.953Z,32.16
2019-06-07T14:36:10.013Z,31.78
2019-06-07T14:41:14.071Z,32.15
2019-06-07T14:46:17.745Z,32.52
2019-06-07T14:51:21.235Z,31.23
2019-06-07T14:56:24.893Z,30.83
2019-06-07T15:01:28.629Z,31.47
2019-06-07T15:06:32.807Z,31.36
2019-06-07T15:11:36.952Z,31.15
2019-06-07T15:16:44.583Z,30.67
2019-06-07T15:21:49.711Z,30.37
2019-06-07T15:26:53.141Z,30.81
2019-06-07T15:31:56.588Z,31.53
2019-06-07T15:37:00.005Z,31.25
2019-06-07T15:42:03.444Z,30.83
2019-06-07T15:47:06.874Z,31.07
2019-06-07T15:52:10.312Z,29.85
2019-06-07T15:57:13.728Z,30.78
2019-06-07T16:02:17.165Z,30.30
2019-06-07T16:07:20.610Z,30.09
2019-06-07T16:12:24.043Z,29.13
2019-06-07T16:17:27.491Z,28.66
2019-06-07T16:22:30.936Z,28.42
2019-06-07T16:27:34.504Z,28.13
2019-06-07T16:32:39.120Z,27.87
2019-06-07T16:37:43.166Z,28.00
2019-06-07T16:42:49.121Z,27.40
2019-06-07T16:47:52.814Z,27.86
2019-06-07T16:52:56.246Z,27.39
2019-06-07T16:57:59.657Z,27.32
2019-06-07T17:03:03.188Z,26.60
2019-06-07T17:08:06.691Z,26.69
2019-06-07T17:13:13.775Z,26.50
2019-06-07T17:18:17.143Z,26.20
2019-06-07T17:23:20.553Z,25.74
2019-06-07T17:28:24.019Z,25.83
2019-06-07T17:33:28.510Z,25.69
2019-06-07T17:38:31.999Z,25.49
2019-06-07T17:43:48.658Z,25.50
2019-06-07T17:48:41.464Z,25.69
2019-06-07T17:53:45.816Z,25.53
2019-06-07T17:58:50.500Z,24.63
2019-06-07T18:03:53.985Z,23.05
2019-06-07T18:09:00.307Z,22.86
2019-06-07T18:14:10.533Z,22.55
2019-06-07T18:19:10.531Z,22.04
2019-06-07T18:24:15.805Z,21.97
2019-06-07T18:29:19.196Z,21.04
2019-06-07T18:34:22.608Z,20.36
2019-06-07T18:39:27.829Z,20.30
2019-06-07T18:44:33.105Z,20.03
2019-06-07T18:49:39.264Z,20.07
2019-06-07T18:54:46.794Z,19.82
2019-06-07T18:59:52.384Z,20.01
2019-06-07T19:05:01.750Z,19.86
2019-06-07T19:10:13.480Z,19.76
2019-06-07T19:15:19.147Z,19.68
2019-06-07T19:20:23.246Z,19.55
2019-06-07T19:25:29.979Z,19.34
2019-06-07T19:30:38.770Z,19.27
2019-06-07T19:35:46.640Z,19.22
2019-06-07T19:40:48.071Z,18.92
2019-06-07T19:45:54.433Z,18.85
2019-06-07T19:50:59.035Z,18.91
2019-06-07T19:56:04.192Z,18.89
2019-06-07T20:06:33.032Z,18.55
2019-06-07T20:11:36.573Z,18.47
2019-06-07T20:16:42.527Z,18.14
2019-06-07T20:21:45.968Z,18.05
2019-06-07T20:26:49.392Z,18.08
2019-06-07T20:31:52.817Z,18.20
2019-06-07T20:36:57.789Z,18.23
2019-06-07T20:42:01.440Z,18.18
2019-06-07T20:47:06.161Z,18.18
2019-06-07T20:52:09.720Z,17.91
2019-06-07T20:57:13.142Z,17.80
2019-06-07T21:02:16.567Z,17.73
2019-06-07T21:07:19.995Z,17.57
2019-06-07T21:12:23.435Z,17.60
2019-06-07T21:17:26.932Z,17.70
2019-06-07T21:22:30.360Z,17.66
2019-06-07T21:27:33.798Z,17.54
2019-06-07T21:32:37.292Z,17.43
2019-06-07T21:37:40.719Z,17.45
2019-06-07T21:42:44.148Z,17.31
2019-06-07T21:47:47.628Z,17.36
2019-06-07T21:52:51.070Z,17.37
2019-06-07T21:57:54.520Z,17.35
2019-06-07T22:02:57.935Z,17.19
2019-06-07T22:08:01.348Z,16.95
2019-06-07T22:13:06.102Z,16.99
2019-06-07T22:18:10.848Z,16.82
2019-06-07T22:23:14.901Z,16.83
2019-06-07T22:28:18.563Z,16.48
2019-06-07T22:33:21.960Z,16.42
2019-06-07T22:38:25.452Z,16.40
2019-06-07T22:43:28.886Z,16.34
2019-06-07T22:48:32.324Z,16.28
2019-06-07T22:53:37.374Z,16.24
2019-06-07T22:58:40.799Z,16.22
2019-06-07T23:03:44.262Z,16.25
2019-06-07T23:08:47.700Z,16.40
2019-06-07T23:13:51.142Z,16.37
2019-06-07T23:18:54.654Z,16.36
2019-06-07T23:23:58.091Z,16.36
2019-06-07T23:29:01.653Z,16.35
2019-06-07T23:34:05.179Z,16.24
2019-06-07T23:39:08.608Z,16.15
2019-06-07T23:44:13.236Z,16.09
2019-06-07T23:49:17.598Z,16.13
2019-06-07T23:54:22.141Z,16.28
2019-06-07T23:59:25.675Z,16.19
